Time;durP1;ratioP1;P1;durP2;ratioP2;P2;SDS_P1;SDS_P2;PMS_P1;PMS_P2;Temp;Humidity;BMP_temperature;BMP_pressure;BME280_temperature;BME280_humidity;BME280_pressure;Samples;Min_cycle;Max_cycle;Signal;HPM_P1;HPM_P2
2022/07/14 00:00:37;;;;;;;6.50;1.57;;;;;;;18.48;56.39;101582.38;4918048;28;120214;-81
2022/07/14 00:03:03;;;;;;;8.07;1.60;;;;;;;18.52;56.08;101576.63;4908900;28;119868;-81
2022/07/14 00:05:29;;;;;;;7.53;1.40;;;;;;;18.49;55.89;101566.47;4911668;28;122695;-81
2022/07/14 00:07:55;;;;;;;6.67;1.30;;;;;;;18.43;56.31;101558.03;4905618;28;120185;-81
2022/07/14 00:10:21;;;;;;;7.03;1.37;;;;;;;18.44;56.25;101551.25;4909198;28;122884;-81
2022/07/14 00:12:47;;;;;;;9.50;1.50;;;;;;;18.45;56.05;101549.22;4931485;28;120174;-81
2022/07/14 00:15:12;;;;;;;7.50;1.43;;;;;;;18.40;56.31;101540.34;4918674;28;119803;-82
2022/07/14 00:17:45;;;;;;;6.95;1.60;;;;;;;18.38;56.20;101542.06;4927348;28;120017;-81
2022/07/14 00:20:11;;;;;;;5.25;1.30;;;;;;;18.22;56.02;101517.63;4927818;28;122772;-81
2022/07/14 00:22:37;;;;;;;6.80;1.60;;;;;;;18.26;56.37;101516.16;4931557;28;119650;-81
2022/07/14 00:25:05;;;;;;;9.47;1.90;;;;;;;18.24;56.34;101526.22;4898595;28;121866;-81
2022/07/14 00:27:31;;;;;;;6.18;1.60;;;;;;;18.16;56.33;101513.97;4933779;28;120355;-81
2022/07/14 00:29:56;;;;;;;9.38;1.50;;;;;;;18.17;56.29;101521.06;4901187;28;119845;-81
2022/07/14 00:32:25;;;;;;;7.45;1.50;;;;;;;18.17;56.43;101515.50;4929996;28;119901;-81
2022/07/14 00:34:57;;;;;;;5.05;1.17;;;;;;;18.05;56.82;101497.94;4921909;28;120176;-81
2022/07/14 00:37:22;;;;;;;10.60;1.65;;;;;;;18.07;56.78;101503.75;4941468;28;120286;-81
2022/07/14 00:39:57;;;;;;;7.22;1.27;;;;;;;18.02;56.85;101502.44;4898444;28;122969;-81
2022/07/14 00:42:32;;;;;;;6.45;1.38;;;;;;;18.04;56.75;101504.72;4928075;28;119868;-81
2022/07/14 00:44:59;;;;;;;7.32;1.42;;;;;;;17.97;57.21;101497.56;4927044;28;120156;-81
2022/07/14 00:47:25;;;;;;;7.25;1.48;;;;;;;17.98;57.05;101503.88;4912656;28;121998;-82
2022/07/14 00:49:55;;;;;;;7.43;1.40;;;;;;;17.98;57.47;101513.00;4934763;28;120041;-81
2022/07/14 00:52:23;;;;;;;5.65;1.52;;;;;;;17.97;57.13;101511.44;4931846;28;120020;-82
2022/07/14 00:54:53;;;;;;;4.37;1.23;;;;;;;17.96;57.35;101512.69;4934453;28;119696;-81
2022/07/14 00:57:20;;;;;;;6.63;1.40;;;;;;;17.89;56.91;101509.53;4917127;28;122313;-81
2022/07/14 00:59:47;;;;;;;7.50;1.47;;;;;;;17.91;57.07;101518.16;4930272;28;119975;-82
2022/07/14 01:02:13;;;;;;;6.28;1.30;;;;;;;17.91;57.58;101526.47;4903354;28;119875;-81
2022/07/14 01:04:38;;;;;;;5.45;1.00;;;;;;;17.85;57.12;101526.41;4895694;28;119881;-82
2022/07/14 01:07:04;;;;;;;8.40;1.40;;;;;;;17.92;57.25;101541.88;4888420;28;123413;-81
2022/07/14 01:09:30;;;;;;;6.03;1.35;;;;;;;17.88;58.07;101558.72;4934902;28;120456;-81
2022/07/14 01:11:57;;;;;;;4.90;1.10;;;;;;;17.89;57.60;101545.63;4911619;28;123099;-81
2022/07/14 01:14:25;;;;;;;6.60;1.30;;;;;;;17.89;57.47;101520.66;4927040;28;119900;-82
2022/07/14 01:16:57;;;;;;;5.37;1.10;;;;;;;18.01;57.25;101527.91;4896923;28;122594;-81
2022/07/14 01:19:25;;;;;;;5.57;1.10;;;;;;;17.99;57.52;101519.31;4930265;28;121915;-82
2022/07/14 01:21:52;;;;;;;5.30;1.30;;;;;;;18.04;57.21;101516.59;4912017;28;119753;-82
2022/07/14 01:24:18;;;;;;;6.90;1.10;;;;;;;18.10;57.08;101516.69;4922493;28;122199;-81
2022/07/14 01:26:45;;;;;;;7.30;1.33;;;;;;;18.10;56.98;101516.69;4928412;28;119950;-82
2022/07/14 01:29:11;;;;;;;7.07;1.60;;;;;;;18.13;57.06;101523.28;4930401;28;119880;-82
2022/07/14 01:31:37;;;;;;;7.90;1.67;;;;;;;18.11;57.29;101520.97;4912176;28;121747;-82
2022/07/14 01:34:06;;;;;;;6.35;1.30;;;;;;;18.11;57.16;101523.75;4910767;28;119721;-81
2022/07/14 01:36:35;;;;;;;6.30;1.30;;;;;;;18.10;57.01;101513.91;4912112;28;119753;-81
2022/07/14 01:39:02;;;;;;;4.07;1.10;;;;;;;18.08;57.45;101517.16;4926560;28;120061;-82
2022/07/14 01:41:28;;;;;;;7.15;1.30;;;;;;;18.05;57.12;101514.59;4906500;28;121160;-82
2022/07/14 01:43:56;;;;;;;5.22;1.02;;;;;;;18.10;57.47;101522.22;4896505;28;122182;-81
2022/07/14 01:46:22;;;;;;;8.18;1.30;;;;;;;18.05;57.26;101509.03;4911589;28;122127;-82
2022/07/14 01:48:48;;;;;;;7.18;1.60;;;;;;;18.03;57.45;101514.31;4908745;28;119859;-81
2022/07/14 01:51:14;;;;;;;5.75;1.35;;;;;;;18.04;57.59;101515.84;4909494;28;121886;-81
2022/07/14 01:53:43;;;;;;;7.40;1.40;;;;;;;18.05;57.55;101518.13;4931096;28;120347;-82
2022/07/14 01:56:11;;;;;;;6.83;1.20;;;;;;;18.11;57.42;101523.75;4927106;28;119872;-81
2022/07/14 01:58:38;;;;;;;7.37;1.30;;;;;;;18.07;57.55;101523.19;4913322;28;121366;-81
2022/07/14 02:03:57;;;;;;;5.78;1.50;;;;;;;18.14;57.67;101514.47;4930168;28;120066;-81
2022/07/14 02:06:23;;;;;;;5.83;1.23;;;;;;;18.16;57.22;101522.31;4911456;28;123156;-81
2022/07/14 02:08:52;;;;;;;7.13;1.40;;;;;;;18.09;57.30;101523.47;4927852;28;120406;-81
2022/07/14 02:14:03;;;;;;;5.80;1.02;;;;;;;18.11;57.54;101526.53;4893569;28;121769;-82
2022/07/14 02:16:30;;;;;;;5.68;1.10;;;;;;;18.09;57.19;101529.78;4925856;28;119888;-82
2022/07/14 02:18:57;;;;;;;5.32;1.23;;;;;;;18.08;57.14;101527.50;4909221;28;121295;-81
2022/07/14 02:21:26;;;;;;;5.07;1.02;;;;;;;18.04;56.96;101516.59;4899024;28;120742;-81
2022/07/14 02:23:52;;;;;;;7.15;1.52;;;;;;;18.05;56.85;101518.13;4936051;28;119612;-81
2022/07/14 02:26:18;;;;;;;5.55;1.50;;;;;;;18.07;56.65;101507.31;4928050;28;120779;-81
2022/07/14 02:28:43;;;;;;;5.57;1.10;;;;;;;18.05;57.06;101500.72;4947398;28;120279;-81
2022/07/14 02:31:11;;;;;;;6.43;1.13;;;;;;;18.10;56.90;101502.78;4910865;28;122214;-81
2022/07/14 02:33:37;;;;;;;6.80;1.35;;;;;;;18.12;56.78;101493.97;4911661;28;122630;-81
2022/07/14 02:36:03;;;;;;;5.55;1.10;;;;;;;18.10;56.87;101500.03;4912890;28;119783;-82
2022/07/14 02:38:29;;;;;;;6.47;1.20;;;;;;;18.07;57.00;101498.97;4915011;28;119886;-81
2022/07/14 02:40:58;;;;;;;7.45;1.33;;;;;;;18.05;56.69;101492.38;4909267;28;119883;-82
2022/07/14 02:43:26;;;;;;;6.80;1.17;;;;;;;17.92;56.52;101478.03;4944228;28;120088;-81
2022/07/14 02:45:52;;;;;;;5.20;1.30;;;;;;;17.91;56.25;101487.63;4911787;28;120273;-81
2022/07/14 02:48:18;;;;;;;4.03;1.08;;;;;;;17.87;56.30;101484.28;4895020;28;120545;-82
2022/07/14 02:50:47;;;;;;;5.57;1.20;;;;;;;17.83;56.45;101483.72;4911809;28;121250;-82
2022/07/14 02:53:12;;;;;;;8.70;1.38;;;;;;;17.74;56.97;101468.72;4893658;28;123368;-82
2022/07/14 02:55:45;;;;;;;4.22;1.10;;;;;;;17.74;56.90;101467.94;4909047;28;119577;-81
2022/07/14 02:58:11;;;;;;;4.53;1.00;;;;;;;17.69;57.11;101457.50;4903738;28;120655;-81
2022/07/14 03:00:41;;;;;;;4.30;1.07;;;;;;;17.69;57.42;101463.81;4932657;28;120491;-82
2022/07/14 03:03:10;;;;;;;5.50;1.23;;;;;;;17.68;57.19;101467.84;4896199;28;120257;-81
2022/07/14 03:05:36;;;;;;;4.88;1.00;;;;;;;17.73;57.61;101474.72;4895168;28;123250;-81
2022/07/14 03:08:02;;;;;;;5.15;1.30;;;;;;;17.69;57.57;101463.81;4896212;28;120101;-82
2022/07/14 03:10:28;;;;;;;6.25;1.13;;;;;;;17.70;57.48;101475.69;4912838;28;122403;-82
2022/07/14 03:12:54;;;;;;;4.93;1.10;;;;;;;17.68;57.34;101467.84;4893124;28;123086;-82
2022/07/14 03:15:20;;;;;;;6.03;1.23;;;;;;;17.65;57.24;101468.78;4893009;28;120653;-82
2022/07/14 03:17:45;;;;;;;6.57;1.20;;;;;;;17.65;57.35;101474.34;4914812;28;121849;-82
2022/07/14 03:20:14;;;;;;;6.25;1.40;;;;;;;17.58;57.33;101463.63;4930617;28;120384;-82
2022/07/14 03:22:40;;;;;;;6.20;1.20;;;;;;;17.57;57.60;101459.34;4912023;28;122043;-82
2022/07/14 03:25:13;;;;;;;5.78;1.27;;;;;;;17.69;58.03;101466.59;4911728;28;120427;-82
2022/07/14 03:27:41;;;;;;;5.53;1.27;;;;;;;17.68;58.10;101467.84;4915945;28;121373;-82
2022/07/14 03:30:16;;;;;;;4.28;1.05;;;;;;;17.69;57.99;101466.59;4928423;28;120283;-81
2022/07/14 03:32:42;;;;;;;4.63;1.10;;;;;;;17.75;57.96;101473.03;4917906;28;120320;-82
2022/07/14 03:35:08;;;;;;;5.70;1.42;;;;;;;17.84;58.14;101474.16;4908131;28;120265;-81
2022/07/14 03:37:35;;;;;;;6.22;1.10;;;;;;;17.82;58.31;101469.09;4908171;28;122996;-81
2022/07/14 03:40:06;;;;;;;7.40;1.23;;;;;;;17.91;58.45;101470.97;4942651;28;122787;-82
2022/07/14 03:42:31;;;;;;;5.57;1.10;;;;;;;17.98;58.26;101478.88;4915468;28;119845;-81
2022/07/14 03:44:58;;;;;;;6.20;1.20;;;;;;;17.97;58.56;101477.34;4927066;28;120138;-82
2022/07/14 03:47:24;;;;;;;7.57;1.38;;;;;;;18.07;58.65;101478.78;4937359;28;119901;-82
2022/07/14 03:49:51;;;;;;;6.00;1.10;;;;;;;18.14;58.27;101483.91;4914809;28;122822;-81
2022/07/14 03:52:17;;;;;;;5.93;1.30;;;;;;;18.22;57.96;101490.63;4914542;28;120523;-82
2022/07/14 03:54:44;;;;;;;5.30;1.00;;;;;;;18.24;58.39;101477.00;4931498;28;119622;-82
2022/07/14 03:57:11;;;;;;;6.25;1.30;;;;;;;18.34;57.73;101485.97;4914608;28;122321;-82
2022/07/14 03:59:40;;;;;;;6.07;1.00;;;;;;;18.41;57.44;101489.09;4923642;28;121593;-82
2022/07/14 04:02:08;;;;;;;7.30;1.38;;;;;;;18.54;56.95;101496.31;4914416;28;119768;-82
2022/07/14 04:04:39;;;;;;;7.85;1.50;;;;;;;18.56;56.72;101483.47;4947658;28;120113;-82
2022/07/14 04:07:07;;;;;;;5.17;1.20;;;;;;;18.62;56.91;101494.66;4931067;28;120176;-82
2022/07/14 04:09:33;;;;;;;7.32;1.27;;;;;;;18.71;56.86;101497.31;4943644;28;120625;-81
2022/07/14 04:12:02;;;;;;;7.20;1.30;;;;;;;18.72;56.50;101482.19;4930339;28;120022;-81
2022/07/14 04:14:28;;;;;;;5.00;1.30;;;;;;;18.83;56.14;101495.44;4930984;28;119872;-81
2022/07/14 04:16:55;;;;;;;5.67;1.40;;;;;;;18.90;55.55;101501.31;4914290;28;122424;-81
2022/07/14 04:19:41;;;;;;;5.05;1.15;;;;;;;18.98;55.72;101498.91;4905391;28;120745;-82
2022/07/14 04:22:07;;;;;;;6.93;1.23;;;;;;;19.06;55.53;101507.56;4929340;28;120102;-82
2022/07/14 04:24:33;;;;;;;6.90;1.33;;;;;;;19.09;55.87;101504.56;4913373;28;120502;-82
2022/07/14 04:26:59;;;;;;;6.18;1.10;;;;;;;19.13;55.22;101496.00;4934370;28;123258;-81
2022/07/14 04:29:24;;;;;;;6.70;1.30;;;;;;;19.18;55.31;101498.84;4912916;28;121843;-81
2022/07/14 04:32:16;;;;;;;4.35;1.02;;;;;;;19.19;55.55;101494.06;4925173;28;120956;-81
2022/07/14 04:34:42;;;;;;;5.82;1.05;;;;;;;19.22;55.25;101495.84;4932586;28;120067;-81
2022/07/14 04:37:07;;;;;;;4.97;1.10;;;;;;;19.28;55.19;101505.00;4909959;28;122708;-82
2022/07/14 04:39:34;;;;;;;7.00;1.00;;;;;;;19.31;55.20;101501.25;4943154;28;120061;-81
2022/07/14 04:42:00;;;;;;;4.87;1.20;;;;;;;19.26;55.54;101486.03;4911845;28;120239;-82
2022/07/14 04:44:26;;;;;;;6.32;1.15;;;;;;;19.38;55.73;101495.22;4926096;28;121975;-82
2022/07/14 04:46:52;;;;;;;6.40;1.20;;;;;;;19.35;55.10;101490.66;4911851;28;122978;-82
2022/07/14 04:52:02;;;;;;;3.83;1.00;;;;;;;19.48;55.13;101471.56;4930810;28;120512;-82
2022/07/14 04:54:34;;;;;;;2.50;0.67;;;;;;;19.58;55.17;101486.84;4936789;28;120183;-82
2022/07/14 04:57:29;;;;;;;5.70;1.17;;;;;;;19.54;54.99;101468.84;4942898;28;119841;-82
2022/07/14 04:59:55;;;;;;;5.05;0.90;;;;;;;19.61;55.51;101473.94;4959663;28;120471;-82
2022/07/14 05:02:21;;;;;;;5.63;1.10;;;;;;;19.73;55.64;101483.94;4913722;28;119884;-82
2022/07/14 05:04:47;;;;;;;6.68;1.38;;;;;;;19.72;55.25;101479.63;4926210;28;119880;-82
2022/07/14 05:07:12;;;;;;;3.63;1.00;;;;;;;19.83;55.18;101495.63;4909671;28;123152;-82
2022/07/14 05:09:43;;;;;;;6.60;0.95;;;;;;;19.85;55.25;101493.09;4928301;28;119755;-82
2022/07/14 05:12:13;;;;;;;5.10;0.77;;;;;;;19.92;54.46;101499.00;4933133;28;119821;-82
2022/07/14 05:14:40;;;;;;;4.78;0.98;;;;;;;19.91;54.56;101494.69;4912481;28;121633;-82
2022/07/14 05:17:06;;;;;;;4.75;0.80;;;;;;;19.98;54.54;101492.69;4911465;28;122205;-82
2022/07/14 05:19:35;;;;;;;4.15;0.82;;;;;;;20.07;54.47;101496.03;4928990;28;120984;-81
2022/07/14 05:22:01;;;;;;;3.17;0.90;;;;;;;20.14;54.70;101501.16;4913984;28;120207;-82
2022/07/14 05:24:27;;;;;;;4.50;1.00;;;;;;;20.18;54.30;101504.47;4919140;28;120300;-83
2022/07/14 05:26:59;;;;;;;5.10;1.10;;;;;;;20.16;54.41;101495.09;4878421;28;122969;-83
2022/07/14 05:29:26;;;;;;;6.18;1.13;;;;;;;20.26;54.37;101492.84;4921381;28;120299;-82
2022/07/14 05:31:52;;;;;;;2.80;0.80;;;;;;;20.31;54.25;101501.25;4928899;28;120106;-82
2022/07/14 05:34:18;;;;;;;6.32;0.82;;;;;;;20.31;54.60;101489.34;4940084;28;120051;-82
2022/07/14 05:36:43;;;;;;;3.15;0.80;;;;;;;20.39;54.17;101501.56;4942815;28;120344;-82
2022/07/14 05:39:09;;;;;;;6.93;1.10;;;;;;;20.45;54.04;101499.56;4895498;28;124089;-82
2022/07/14 05:41:35;;;;;;;3.78;0.95;;;;;;;20.49;54.00;101497.31;4912885;28;119948;-82
2022/07/14 05:44:00;;;;;;;4.17;1.00;;;;;;;20.57;54.53;101492.00;4924833;28;120296;-82
2022/07/14 05:46:31;;;;;;;3.60;0.80;;;;;;;20.59;54.29;101486.72;4910988;28;124166;-82
2022/07/14 05:48:57;;;;;;;4.53;0.90;;;;;;;20.62;53.83;101489.28;4912725;28;119916;-82
2022/07/14 05:51:23;;;;;;;4.68;0.93;;;;;;;20.69;53.58;101486.00;4896748;28;120651;-81
2022/07/14 05:53:52;;;;;;;4.03;0.98;;;;;;;20.74;53.96;101470.53;4919308;28;120047;-82
2022/07/14 05:56:21;;;;;;;3.63;0.98;;;;;;;20.89;54.09;101487.06;4929788;28;122350;-82
2022/07/14 05:58:47;;;;;;;4.30;0.93;;;;;;;20.99;53.81;101494.69;4944462;28;120430;-82
2022/07/14 06:01:16;;;;;;;5.78;0.85;;;;;;;21.06;53.84;101485.09;4910102;28;119816;-82
2022/07/14 06:03:53;;;;;;;5.15;1.20;;;;;;;21.05;53.29;101472.38;4937697;28;120742;-82
2022/07/14 06:06:20;;;;;;;5.80;1.05;;;;;;;21.15;53.45;101479.25;4940274;28;122677;-82
2022/07/14 06:08:47;;;;;;;5.80;1.10;;;;;;;21.16;53.60;101483.56;4926061;28;120864;-81
2022/07/14 06:11:13;;;;;;;5.83;1.00;;;;;;;21.22;53.78;101464.03;4928934;28;121148;-82
2022/07/14 06:13:42;;;;;;;3.97;0.90;;;;;;;21.27;53.82;101466.88;4895515;28;123376;-81
2022/07/14 06:16:09;;;;;;;3.83;0.93;;;;;;;21.42;53.80;101483.38;4916781;28;120238;-81
2022/07/14 06:18:35;;;;;;;4.45;1.13;;;;;;;21.46;53.17;101481.09;4922638;28;120381;-82
2022/07/14 06:21:01;;;;;;;4.55;1.10;;;;;;;21.58;53.12;101471.47;4909289;28;120182;-82
2022/07/14 06:23:27;;;;;;;5.05;0.80;;;;;;;21.69;52.87;101470.66;4911627;28;120029;-82
2022/07/14 06:25:54;;;;;;;5.63;0.90;;;;;;;21.72;53.13;101472.44;4912728;28;120894;-82
2022/07/14 06:28:27;;;;;;;4.10;0.77;;;;;;;21.81;52.67;101466.59;4926157;28;119997;-83
2022/07/14 06:30:56;;;;;;;4.78;1.20;;;;;;;21.85;52.30;101464.31;4927579;28;120210;-82
2022/07/14 06:33:22;;;;;;;5.05;1.05;;;;;;;21.89;52.21;101458.47;4911384;28;122923;-82
2022/07/14 06:36:15;;;;;;;5.50;1.10;;;;;;;21.91;52.95;101458.72;4911027;28;121326;-81
2022/07/14 06:39:07;;;;;;;3.23;1.10;;;;;;;22.02;52.71;101464.28;4820234;29;120510;-82
2022/07/14 06:41:35;;;;;;;6.55;1.20;;;;;;;22.13;52.42;101469.09;4909584;28;120069;-82
2022/07/14 06:44:04;;;;;;;5.87;1.07;;;;;;;22.18;52.09;101459.94;4927613;28;119882;-82
2022/07/14 06:46:37;;;;;;;5.28;1.20;;;;;;;22.26;51.98;101458.16;4925818;28;120545;-82
2022/07/14 06:49:04;;;;;;;5.60;1.00;;;;;;;22.21;51.09;101445.69;4896162;28;120136;-82
2022/07/14 06:51:32;;;;;;;5.63;1.10;;;;;;;22.27;51.70;101454.09;4925671;28;120612;-82
2022/07/14 06:53:58;;;;;;;5.88;1.00;;;;;;;22.26;51.81;101458.91;4940616;28;123463;-82
2022/07/14 06:56:24;;;;;;;4.97;1.25;;;;;;;22.25;52.06;101451.81;4927765;28;121739;-82
2022/07/14 06:58:49;;;;;;;7.57;1.23;;;;;;;22.27;51.86;101445.69;4930000;28;120065;-82
2022/07/14 07:01:18;;;;;;;4.50;1.00;;;;;;;22.30;52.06;101453.81;4930691;28;121277;-82
2022/07/14 07:03:43;;;;;;;3.70;0.90;;;;;;;22.33;52.18;101444.41;4905836;28;122757;-81
2022/07/14 07:08:53;;;;;;;6.13;1.20;;;;;;;22.54;50.91;101435.66;4927925;28;120021;-82
2022/07/14 07:11:19;;;;;;;7.53;1.20;;;;;;;22.51;50.25;101431.09;4927229;28;122619;-82
2022/07/14 07:13:45;;;;;;;8.13;1.20;;;;;;;22.50;50.76;101433.16;4925769;28;120630;-82
2022/07/14 07:16:10;;;;;;;5.53;1.20;;;;;;;22.53;50.31;101418.13;4922694;28;120057;-81
2022/07/14 07:18:36;;;;;;;5.40;1.03;;;;;;;22.59;50.63;101427.25;4902060;28;122630;-82
2022/07/14 07:21:03;;;;;;;6.50;1.30;;;;;;;22.61;50.18;101427.47;4927553;28;122602;-82
2022/07/14 07:23:30;;;;;;;5.97;0.95;;;;;;;22.68;49.37;101426.16;4913700;28;120599;-82
2022/07/14 07:25:55;;;;;;;6.35;1.00;;;;;;;22.74;49.88;101435.31;4924875;28;124392;-82
2022/07/14 07:28:24;;;;;;;5.05;1.00;;;;;;;22.78;49.32;101427.38;4923562;28;120587;-83
2022/07/14 07:30:53;;;;;;;5.63;1.08;;;;;;;22.85;49.08;101418.47;4922455;28;122148;-83
2022/07/14 07:33:18;;;;;;;6.30;1.00;;;;;;;22.94;48.95;101420.19;4926490;28;121998;-83
2022/07/14 07:35:45;;;;;;;4.53;0.93;;;;;;;23.02;49.25;101431.59;4930535;28;121449;-83
2022/07/14 07:38:11;;;;;;;4.43;0.90;;;;;;;23.06;48.07;101432.81;4936743;28;125064;-84
2022/07/14 07:40:37;;;;;;;4.97;1.00;;;;;;;23.04;47.14;101418.59;4924493;28;120746;-84
2022/07/14 07:43:05;;;;;;;5.57;1.00;;;;;;;23.13;47.69;101418.25;4914837;28;120579;-85
2022/07/14 07:45:31;;;;;;;4.57;1.00;;;;;;;23.21;47.41;101418.47;4924525;28;120864;-84
2022/07/14 07:47:57;;;;;;;5.15;1.20;;;;;;;23.24;47.75;101407.00;4891718;28;120999;-85
2022/07/14 07:50:23;;;;;;;4.57;0.88;;;;;;;23.30;47.10;101409.72;4900151;28;122540;-82
2022/07/14 07:52:51;;;;;;;5.50;0.97;;;;;;;23.32;46.26;101414.81;4932846;28;120977;-82
2022/07/14 07:55:17;;;;;;;3.03;0.80;;;;;;;23.25;46.76;101416.91;4929039;28;120923;-82
2022/07/14 07:57:43;;;;;;;6.00;1.30;;;;;;;23.26;47.32;101412.81;4926278;28;123197;-82
2022/07/14 08:00:09;;;;;;;4.50;1.02;;;;;;;23.33;46.96;101416.31;4922931;28;120821;-82
2022/07/14 08:02:46;;;;;;;5.70;1.02;;;;;;;23.40;48.24;101415.75;4910684;28;120896;-82
2022/07/14 08:05:12;;;;;;;5.57;1.10;;;;;;;23.59;48.15;101416.63;4911988;28;121992;-81
2022/07/14 08:07:37;;;;;;;4.63;1.05;;;;;;;23.75;47.46;101418.50;4925760;28;121667;-82
2022/07/14 08:10:06;;;;;;;3.23;0.80;;;;;;;23.91;46.96;101402.81;4921274;28;121588;-82
2022/07/14 08:12:32;;;;;;;4.40;1.00;;;;;;;23.95;45.38;101408.09;4905613;28;121794;-81
2022/07/14 08:14:57;;;;;;;4.17;1.00;;;;;;;23.89;45.58;101402.53;4924500;28;122358;-83
2022/07/14 08:17:23;;;;;;;3.60;1.00;;;;;;;23.83;46.03;101408.22;4926019;28;121330;-81
2022/07/14 08:19:49;;;;;;;4.77;1.10;;;;;;;23.81;46.30;101418.44;4908512;28;124151;-82
2022/07/14 08:22:24;;;;;;;5.97;0.97;;;;;;;23.75;45.70;101401.69;4908708;28;121437;-81
2022/07/14 08:24:51;;;;;;;4.03;1.02;;;;;;;23.79;46.34;101410.56;4908960;28;122388;-83
2022/07/14 08:27:17;;;;;;;4.30;1.25;;;;;;;23.78;47.07;101408.28;4930959;28;121716;-84
2022/07/14 08:29:43;;;;;;;6.13;1.10;;;;;;;23.76;46.23;101397.59;4909248;28;122787;-82
2022/07/14 08:32:08;;;;;;;6.75;1.38;;;;;;;23.78;46.87;101395.03;4926938;28;121616;-82
2022/07/14 08:34:34;;;;;;;4.13;0.85;;;;;;;23.83;46.28;101391.41;4928749;28;121822;-83
2022/07/14 08:37:00;;;;;;;4.13;1.10;;;;;;;23.91;46.62;101383.19;4924252;28;121614;-82
2022/07/14 08:39:26;;;;;;;5.80;1.20;;;;;;;24.12;46.14;101372.22;4925119;28;122877;-82
2022/07/14 08:41:54;;;;;;;4.22;0.80;;;;;;;24.28;45.61;101378.91;4915260;28;122076;-85
2022/07/14 08:44:21;;;;;;;5.97;1.40;;;;;;;24.35;45.68;101383.91;4930356;28;121857;-83
2022/07/14 08:46:47;;;;;;;4.50;0.90;;;;;;;24.33;45.32;101389.31;4906217;28;124064;-83
2022/07/14 08:49:16;;;;;;;5.63;1.25;;;;;;;24.24;45.58;101370.78;4921715;28;121878;-84
2022/07/14 08:51:43;;;;;;;2.63;1.00;;;;;;;24.24;45.00;101379.22;4915093;28;121937;-84
2022/07/14 08:54:09;;;;;;;3.30;1.00;;;;;;;24.08;45.41;101380.91;4912215;28;122054;-85
2022/07/14 08:56:39;;;;;;;4.43;1.00;;;;;;;23.86;45.56;101384.00;4910710;28;123673;-83
2022/07/14 08:59:06;;;;;;;4.57;1.40;;;;;;;23.65;46.81;101382.94;4927695;28;121356;-82
2022/07/14 09:01:32;;;;;;;5.38;1.30;;;;;;;23.55;47.37;101379.72;4912354;28;121622;-83
2022/07/14 09:03:59;;;;;;;5.15;1.33;;;;;;;23.45;47.52;101372.97;4912207;28;122445;-83
2022/07/14 09:06:53;;;;;;;5.72;1.35;;;;;;;23.47;47.45;101387.19;4925094;28;122262;-81
2022/07/14 09:09:27;;;;;;;6.15;1.20;;;;;;;23.47;47.85;101373.19;4941277;28;121133;-82
2022/07/14 09:12:05;;;;;;;3.95;1.10;;;;;;;23.57;47.34;101379.97;4915769;28;122021;-82
2022/07/14 09:17:49;;;;;;;4.43;1.00;;;;;;;23.74;47.31;101377.00;4907559;28;123200;-82
2022/07/14 09:20:15;;;;;;;5.38;1.10;;;;;;;23.92;46.95;101381.16;4938311;28;122722;-83
2022/07/14 09:22:43;;;;;;;4.65;1.20;;;;;;;24.09;45.77;101376.06;4929744;28;121820;-83
2022/07/14 09:25:17;;;;;;;5.25;1.15;;;;;;;24.11;45.47;101379.09;4927978;28;121372;-83
2022/07/14 09:27:48;;;;;;;4.68;1.10;;;;;;;24.01;46.15;101372.38;4927233;28;123588;-82
2022/07/14 09:30:15;;;;;;;3.37;1.00;;;;;;;23.92;45.47;101372.75;4930235;28;121500;-84
2022/07/14 09:32:41;;;;;;;5.38;1.20;;;;;;;23.87;46.97;101380.66;4927856;28;121357;-85
2022/07/14 09:35:07;;;;;;;5.00;1.13;;;;;;;23.70;47.55;101370.94;4885370;28;121596;-83
2022/07/14 09:37:38;;;;;;;5.13;1.33;;;;;;;23.75;48.50;101379.28;4895985;28;124668;-84
2022/07/14 09:40:09;;;;;;;5.43;1.27;;;;;;;23.88;48.52;101382.16;4927352;28;122587;-83
2022/07/14 09:43:02;;;;;;;6.93;1.40;;;;;;;24.07;47.78;101373.03;4929178;28;121367;-83
2022/07/14 09:45:29;;;;;;;3.92;1.00;;;;;;;24.14;47.25;101369.66;4926498;28;121984;-82
2022/07/14 09:48:04;;;;;;;5.03;1.30;;;;;;;24.21;47.04;101371.84;4943290;28;123784;-83
2022/07/14 09:50:57;;;;;;;3.73;1.30;;;;;;;24.16;47.11;101367.09;4920316;28;121736;-82
2022/07/14 09:53:36;;;;;;;4.68;1.10;;;;;;;23.95;47.30;101358.44;4910416;28;122113;-83
2022/07/14 09:56:06;;;;;;;3.83;1.02;;;;;;;23.79;47.29;101367.78;4944034;28;122554;-82
2022/07/14 09:58:45;;;;;;;5.22;1.27;;;;;;;23.60;47.81;101369.78;4941367;28;121070;-83
2022/07/14 10:01:19;;;;;;;4.68;1.02;;;;;;;23.42;48.08;101366.38;4925385;28;123216;-82
2022/07/14 10:03:51;;;;;;;4.20;1.23;;;;;;;23.24;48.63;101367.03;4928925;28;120726;-84
2022/07/14 10:06:18;;;;;;;3.88;1.25;;;;;;;23.13;48.35;101364.34;4942575;28;120745;-83
2022/07/14 10:08:46;;;;;;;5.38;1.38;;;;;;;23.05;48.20;101364.16;4926531;28;123793;-83
2022/07/14 10:11:12;;;;;;;5.10;1.00;;;;;;;23.02;48.46;101370.78;4944587;28;122367;-83
2022/07/14 10:13:39;;;;;;;3.47;0.70;;;;;;;22.87;47.30;101379.53;4911734;28;122813;-82
2022/07/14 10:16:05;;;;;;;1.67;0.57;;;;;;;22.63;47.79;101362.66;4942903;28;120827;-81
2022/07/14 10:18:34;;;;;;;2.03;0.68;;;;;;;22.53;48.89;101379.00;4945769;28;120241;-81
2022/07/14 10:21:01;;;;;;;3.10;0.80;;;;;;;22.49;49.47;101369.38;4936173;28;121324;-81
2022/07/14 10:23:29;;;;;;;3.20;0.70;;;;;;;22.48;50.21;101370.63;4946073;28;122273;-80
2022/07/14 10:25:59;;;;;;;1.80;0.57;;;;;;;22.47;49.74;101361.47;4929032;28;122826;-81
2022/07/14 10:28:26;;;;;;;3.03;0.80;;;;;;;22.43;50.46;101372.16;4927385;28;123296;-81
2022/07/14 10:31:24;;;;;;;1.50;0.90;;;;;;;22.41;51.27;101382.34;4913142;28;120010;-81
2022/07/14 10:34:15;;;;;;;2.77;0.80;;;;;;;22.34;51.92;101369.69;4913070;28;122287;-81
2022/07/14 10:36:50;;;;;;;3.45;1.05;;;;;;;22.26;51.80;101360.34;4941441;28;120772;-81
2022/07/14 10:39:32;;;;;;;2.80;0.90;;;;;;;22.17;52.59;101366.22;4943160;28;120767;-81
2022/07/14 10:42:05;;;;;;;3.63;1.10;;;;;;;22.11;52.90;101366.25;4948248;28;121784;-81
2022/07/14 10:44:34;;;;;;;4.65;1.00;;;;;;;22.08;53.70;101358.13;4944727;28;120254;-81
2022/07/14 10:47:07;;;;;;;4.60;1.08;;;;;;;22.24;54.33;101362.88;4941468;28;123302;-81
2022/07/14 10:50:04;;;;;;;4.40;0.98;;;;;;;22.58;54.59;101353.03;4938330;28;121917;-81
2022/07/14 10:52:32;;;;;;;3.08;1.00;;;;;;;22.94;53.40;101345.41;4932883;28;120632;-81
2022/07/14 10:55:13;;;;;;;5.97;1.02;;;;;;;23.27;51.93;101329.59;4930721;28;123118;-81
2022/07/14 10:57:59;;;;;;;4.33;1.07;;;;;;;23.53;51.17;101329.84;4938530;28;122820;-82
2022/07/14 11:00:55;;;;;;;5.55;1.20;;;;;;;23.70;50.32;101326.91;4931663;28;122725;-82
2022/07/14 11:03:32;;;;;;;4.88;1.00;;;;;;;23.72;49.98;101327.13;4939269;28;123015;-83
2022/07/14 11:06:00;;;;;;;5.30;1.23;;;;;;;23.61;50.05;101318.06;4922401;28;123240;-84
2022/07/14 11:08:28;;;;;;;5.40;1.23;;;;;;;23.42;49.73;101335.56;4907795;28;122076;-81
2022/07/14 11:11:00;;;;;;;5.13;1.10;;;;;;;23.24;49.34;101320.22;4948318;28;122809;-83
2022/07/14 11:13:27;;;;;;;6.73;1.60;;;;;;;23.09;50.22;101345.03;4937358;28;120824;-85
2022/07/14 11:15:57;;;;;;;4.63;1.30;;;;;;;22.91;52.29;101352.03;4934963;28;122548;-84
2022/07/14 11:18:26;;;;;;;3.77;1.00;;;;;;;22.69;53.25;101354.97;4939022;28;121117;-85
2022/07/14 11:21:08;;;;;;;3.40;1.20;;;;;;;22.48;55.32;101357.41;4935682;28;121843;-84
2022/07/14 11:23:39;;;;;;;6.07;1.60;;;;;;;22.42;55.75;101347.53;4927371;28;120737;-84
2022/07/14 11:26:27;;;;;;;4.22;1.20;;;;;;;22.33;56.53;101338.19;4912837;28;122567;-83
2022/07/14 11:28:53;;;;;;;7.03;1.40;;;;;;;22.32;56.06;101367.41;4913806;28;121866;-83
2022/07/14 11:31:18;;;;;;;2.57;1.00;;;;;;;22.16;54.51;101375.88;4927314;28;122414;-83
2022/07/14 11:36:32;;;;;;;4.13;1.00;;;;;;;21.45;55.30;101393.81;4926094;28;122643;-84
2022/07/14 11:39:16;;;;;;;4.87;1.30;;;;;;;21.11;56.85;101397.84;4895622;28;123687;-85
2022/07/14 11:41:46;;;;;;;3.30;1.17;;;;;;;20.81;57.66;101380.81;4896546;28;120388;-84